Terminal Aerodrome Forecast
Issued by NWS

Home | Current Version | Previous Version | Text Only | Print | Product List | Glossary On
Versions: 1 2 3 4 5 6 7 8 9 10 11 12 13 14 15
035
FTUS41 KPHI 070537
TAFMIV
TAF
KMIV 070537Z 0706/0806 00000KT P6SM FEW200
     FM071400 03004KT P6SM SKC
     FM072000 05008KT P6SM BKN200
     FM080500 02011KT P6SM OVC100=

USA.gov is the U.S. government's official web portal to all federal, state and local government web resources and services.